Big Coppitt Key, Florida
Current Conditions -  °F | °C
As of 9:53 PM on Friday 21 Nov 2014 (Local Time) from KNQX Reporting Station
Overcast Overcast  
Wind Chill: 69°   Ceiling: 7000
Heat Index: 69°   Visibility: 10mi
Dew Point: 69°   Wind: 14mph
Humidity: 100%   Direction: 50°NE
Pressure: 30.11"   Gusts: 23mph
Location:  24.6°N, 81.66°W
Report Text: KNQX 220253Z 05012G20KT 10SM FEW014 OVC070 21/21 A3011 RMK AO2 SLP196 T02060206 51010 $
Loading
Personal Weather Stations






























Interactive Weather Map New forecast layout! Learn more

10-Day Weather Forecast

Advertisements
Track Severe Weather on mobile